createdAt,value
2018-11-10T00:00:45.169Z,28.40
2018-11-10T00:03:13.444Z,29.63
2018-11-10T00:05:42.481Z,27.30
2018-11-10T00:08:10.782Z,29.50
2018-11-10T00:10:38.988Z,30.30
2018-11-10T00:13:07.306Z,27.43
2018-11-10T00:15:35.549Z,26.13
2018-11-10T00:18:03.815Z,28.57
2018-11-10T00:20:32.092Z,25.33
2018-11-10T00:23:00.340Z,19.70
2018-11-10T00:25:29.364Z,20.57
2018-11-10T00:27:57.627Z,25.00
2018-11-10T00:30:25.902Z,24.27
2018-11-10T00:32:55.055Z,25.23
2018-11-10T00:35:23.324Z,24.60
2018-11-10T00:37:51.599Z,21.67
2018-11-10T00:40:19.855Z,27.97
2018-11-10T00:42:48.110Z,27.43
2018-11-10T00:45:16.417Z,26.80
2018-11-10T00:47:45.458Z,27.33
2018-11-10T00:50:13.754Z,29.43
2018-11-10T00:52:42.080Z,25.87
2018-11-10T00:55:10.284Z,30.97
2018-11-10T00:57:39.309Z,29.43
2018-11-10T01:00:07.581Z,30.70
2018-11-10T01:02:35.833Z,27.57
2018-11-10T01:05:04.097Z,31.03
2018-11-10T01:07:33.126Z,31.57
2018-11-10T01:10:01.393Z,31.13
2018-11-10T01:12:29.642Z,31.03
2018-11-10T01:14:58.702Z,32.57
2018-11-10T01:17:26.960Z,28.60
2018-11-10T01:19:55.766Z,28.43
2018-11-10T01:22:24.033Z,34.97
2018-11-10T01:24:52.290Z,27.37
2018-11-10T01:27:20.567Z,27.67
2018-11-10T01:29:49.241Z,27.67
2018-11-10T01:32:17.516Z,29.10
2018-11-10T01:34:45.779Z,28.03
2018-11-10T01:37:14.069Z,27.83
2018-11-10T01:39:42.341Z,28.47
2018-11-10T01:42:10.590Z,29.23
2018-11-10T01:44:38.866Z,29.10
2018-11-10T01:47:07.115Z,28.63
2018-11-10T01:49:35.378Z,25.53
2018-11-10T01:52:03.644Z,29.30
2018-11-10T01:54:31.907Z,26.87
2018-11-10T01:57:00.195Z,27.37
2018-11-10T01:59:28.437Z,29.30
2018-11-10T02:01:56.717Z,26.33
2018-11-10T02:04:24.978Z,25.10
2018-11-10T02:06:53.293Z,27.30
2018-11-10T02:09:21.534Z,29.83
2018-11-10T02:11:49.787Z,27.63
2018-11-10T02:14:18.818Z,31.77
2018-11-10T02:16:47.831Z,30.07
2018-11-10T02:19:16.468Z,29.47
2018-11-10T02:21:44.719Z,27.63
2018-11-10T02:24:13.731Z,27.33
2018-11-10T02:26:41.995Z,26.67
2018-11-10T02:29:10.255Z,24.20
2018-11-10T02:31:39.446Z,26.73
2018-11-10T02:34:08.307Z,22.57
2018-11-10T02:36:36.562Z,26.80
2018-11-10T02:39:04.858Z,24.63
2018-11-10T02:41:33.122Z,25.30
2018-11-10T02:44:01.402Z,26.90
2018-11-10T02:46:29.662Z,26.83
2018-11-10T02:48:57.910Z,27.67
2018-11-10T02:51:26.506Z,27.67
2018-11-10T02:53:54.775Z,29.97
2018-11-10T02:56:23.024Z,26.63
2018-11-10T02:58:52.066Z,28.00
2018-11-10T03:01:20.340Z,29.87
2018-11-10T03:03:48.623Z,28.03
2018-11-10T03:06:17.650Z,28.57
2018-11-10T03:08:45.905Z,27.77
2018-11-10T03:11:14.165Z,30.20
2018-11-10T03:13:42.411Z,26.77
2018-11-10T03:16:10.730Z,25.30
2018-11-10T03:18:38.950Z,25.30
2018-11-10T03:21:07.235Z,24.70
2018-11-10T03:23:36.233Z,25.37
2018-11-10T03:26:04.493Z,24.73
2018-11-10T03:28:32.747Z,25.27
2018-11-10T03:31:01.004Z,27.07
2018-11-10T03:33:29.548Z,26.57
2018-11-10T03:35:57.793Z,28.13
2018-11-10T03:38:26.818Z,29.50
2018-11-10T03:40:55.086Z,29.70
2018-11-10T03:43:23.342Z,32.23
2018-11-10T03:45:51.947Z,31.93
2018-11-10T03:48:20.198Z,28.87
2018-11-10T03:50:49.218Z,30.03
2018-11-10T03:53:17.497Z,27.13
2018-11-10T03:55:45.737Z,27.70
2018-11-10T03:58:14.770Z,28.67
2018-11-10T04:00:43.031Z,27.67
2018-11-10T04:03:11.307Z,27.13
2018-11-10T04:05:39.558Z,27.23
2018-11-10T04:08:08.591Z,28.43
2018-11-10T04:10:36.847Z,28.33
2018-11-10T04:13:05.096Z,26.57
2018-11-10T04:15:34.126Z,24.67
2018-11-10T04:18:02.397Z,28.57
2018-11-10T04:20:30.653Z,29.37
2018-11-10T04:22:58.944Z,30.73
2018-11-10T04:25:27.205Z,28.17
2018-11-10T04:27:55.467Z,31.93
2018-11-10T04:30:24.478Z,29.73
2018-11-10T04:32:52.735Z,30.00
2018-11-10T04:35:21.754Z,31.83
2018-11-10T04:37:50.007Z,30.37
2018-11-10T04:40:18.278Z,30.73
2018-11-10T04:42:47.304Z,27.37
2018-11-10T04:45:15.575Z,28.13
2018-11-10T04:47:43.828Z,32.13
2018-11-10T04:50:12.087Z,30.00
2018-11-10T04:52:41.106Z,31.27
2018-11-10T04:55:09.350Z,32.73
2018-11-10T04:57:38.397Z,32.63
2018-11-10T05:00:06.637Z,32.93
2018-11-10T05:02:34.907Z,31.83
2018-11-10T05:05:03.158Z,30.07
2018-11-10T05:07:31.407Z,29.23
2018-11-10T05:10:00.882Z,28.57
2018-11-10T05:12:29.878Z,29.53
2018-11-10T05:14:58.134Z,34.07
2018-11-10T05:17:26.386Z,29.23
2018-11-10T05:19:55.432Z,32.03
2018-11-10T05:22:23.675Z,30.57
2018-11-10T05:24:51.927Z,31.83
2018-11-10T05:27:20.327Z,34.87
2018-11-10T05:29:49.366Z,30.47
2018-11-10T05:32:17.638Z,32.70
2018-11-10T05:34:45.898Z,30.37
2018-11-10T05:37:14.155Z,31.43
2018-11-10T05:39:42.423Z,31.10
2018-11-10T05:42:10.678Z,31.77
2018-11-10T05:44:39.719Z,28.53
2018-11-10T05:47:07.966Z,29.80
2018-11-10T05:49:37.002Z,30.63
2018-11-10T05:52:05.272Z,29.70
2018-11-10T05:54:33.529Z,26.43
2018-11-10T05:57:01.842Z,31.27
2018-11-10T05:59:31.018Z,30.20
2018-11-10T06:02:00.035Z,29.50
2018-11-10T06:04:28.302Z,29.07
2018-11-10T06:06:56.563Z,29.53
2018-11-10T06:09:24.869Z,33.27
2018-11-10T06:11:53.086Z,28.53
2018-11-10T06:14:21.363Z,28.50
2018-11-10T06:16:49.614Z,30.57
2018-11-10T06:19:18.647Z,28.70
2018-11-10T06:21:46.927Z,29.13
2018-11-10T06:24:15.164Z,30.60
2018-11-10T06:26:43.442Z,30.00
2018-11-10T06:29:11.698Z,28.20
2018-11-10T06:31:40.710Z,30.70
2018-11-10T06:34:09.110Z,28.07
2018-11-10T06:36:37.359Z,29.30
2018-11-10T06:39:05.893Z,31.73
2018-11-10T06:41:34.212Z,26.93
2018-11-10T06:44:02.391Z,29.40
2018-11-10T06:46:30.983Z,26.93
2018-11-10T06:48:59.234Z,31.33
2018-11-10T06:51:28.289Z,29.27
2018-11-10T06:53:56.795Z,29.80
2018-11-10T06:56:25.830Z,28.87
2018-11-10T06:58:54.079Z,28.80
2018-11-10T07:01:23.121Z,28.70
2018-11-10T07:03:51.524Z,29.70
2018-11-10T07:06:19.791Z,28.23
2018-11-10T07:08:48.044Z,30.13
2018-11-10T07:11:16.319Z,28.53
2018-11-10T07:13:44.582Z,32.73
2018-11-10T07:16:12.855Z,27.77
2018-11-10T07:18:41.974Z,32.77
2018-11-10T07:21:11.007Z,29.03
2018-11-10T07:23:40.038Z,29.60
2018-11-10T07:26:08.571Z,31.37
2018-11-10T07:28:36.826Z,27.27
2018-11-10T07:31:05.908Z,31.53
2018-11-10T07:33:34.167Z,27.53
2018-11-10T07:36:02.427Z,31.33
2018-11-10T07:38:30.722Z,28.30
2018-11-10T07:40:58.962Z,30.07
2018-11-10T07:43:27.221Z,29.63
2018-11-10T07:45:56.242Z,29.43
2018-11-10T07:48:24.504Z,28.57
2018-11-10T07:50:52.788Z,29.00
2018-11-10T07:53:21.112Z,27.53
2018-11-10T07:55:49.396Z,27.63
2018-11-10T07:58:17.639Z,26.87
2018-11-10T08:00:45.902Z,26.90
2018-11-10T08:03:14.149Z,30.57
2018-11-10T08:05:43.172Z,31.20
2018-11-10T08:08:11.457Z,27.97
2018-11-10T08:10:39.709Z,30.13
2018-11-10T08:13:07.978Z,26.73
2018-11-10T08:15:36.242Z,28.03
2018-11-10T08:18:05.291Z,29.57
2018-11-10T08:20:33.534Z,28.70
2018-11-10T08:23:02.148Z,28.27
2018-11-10T08:25:30.386Z,32.50
2018-11-10T08:27:58.635Z,30.03
2018-11-10T08:30:27.674Z,31.93
2018-11-10T08:32:55.926Z,29.47
2018-11-10T08:35:24.175Z,32.70
2018-11-10T08:37:53.961Z,34.40
2018-11-10T08:40:22.214Z,31.27
2018-11-10T08:42:50.465Z,29.80
2018-11-10T08:45:18.746Z,29.20
2018-11-10T08:47:47.803Z,29.87
2018-11-10T08:50:16.824Z,32.33
2018-11-10T08:52:45.401Z,29.63
2018-11-10T08:55:13.682Z,28.57
2018-11-10T08:57:42.051Z,27.90
2018-11-10T09:00:10.214Z,28.23
2018-11-10T09:02:39.703Z,30.03
2018-11-10T09:05:08.735Z,27.10
2018-11-10T09:07:36.999Z,28.87
2018-11-10T09:10:05.247Z,26.83
2018-11-10T09:12:34.299Z,28.77
2018-11-10T09:15:02.597Z,25.93
2018-11-10T09:17:30.850Z,28.87
2018-11-10T09:19:59.082Z,29.40
2018-11-10T09:22:27.697Z,28.90
2018-11-10T09:24:55.942Z,29.07
2018-11-10T09:27:24.982Z,28.10
2018-11-10T09:29:53.249Z,26.63
2018-11-10T09:32:21.518Z,24.73
2018-11-10T09:34:49.773Z,28.80
2018-11-10T09:37:18.042Z,25.23
2018-11-10T09:39:46.298Z,23.30
2018-11-10T09:42:15.436Z,27.40
2018-11-10T09:44:43.587Z,26.40
2018-11-10T09:47:11.853Z,25.20
2018-11-10T09:49:40.138Z,23.80
2018-11-10T09:52:08.409Z,24.33
2018-11-10T09:54:37.421Z,25.23
2018-11-10T09:57:06.454Z,23.43
2018-11-10T09:59:34.715Z,24.27
2018-11-10T10:02:03.348Z,25.27
2018-11-10T10:04:31.262Z,24.90
2018-11-10T10:06:59.530Z,25.63
2018-11-10T10:09:28.106Z,25.50
2018-11-10T10:11:56.372Z,25.17
2018-11-10T10:14:24.620Z,24.17
2018-11-10T10:16:52.898Z,23.60
2018-11-10T10:19:21.151Z,24.13
2018-11-10T10:21:50.522Z,25.37
2018-11-10T10:24:18.735Z,24.50
2018-11-10T10:26:47.742Z,24.13
2018-11-10T10:29:16.028Z,23.23
2018-11-10T10:31:44.295Z,24.70
2018-11-10T10:34:12.603Z,28.10
2018-11-10T10:36:40.820Z,24.57
2018-11-10T10:39:09.830Z,23.70
2018-11-10T10:41:38.210Z,26.80
2018-11-10T10:44:06.474Z,24.87
2018-11-10T10:46:35.493Z,24.00
2018-11-10T10:49:04.098Z,23.37
2018-11-10T10:51:32.263Z,24.40
2018-11-10T10:54:00.511Z,28.30
2018-11-10T10:56:28.839Z,32.83
2018-11-10T10:58:57.392Z,23.77
2018-11-10T11:01:31.225Z,26.20
2018-11-10T11:03:59.522Z,49.93
2018-11-10T11:06:27.771Z,25.07
2018-11-10T11:08:56.088Z,25.23
2018-11-10T11:11:24.394Z,22.63
2018-11-10T11:13:53.958Z,21.00
2018-11-10T11:16:22.995Z,20.67
2018-11-10T11:18:51.277Z,22.30
2018-11-10T11:21:19.539Z,22.50
2018-11-10T11:23:47.878Z,23.67
2018-11-10T11:26:16.119Z,21.50
2018-11-10T11:28:44.397Z,23.17
2018-11-10T11:31:12.755Z,24.57
2018-11-10T11:33:41.709Z,19.90
2018-11-10T11:36:10.736Z,22.20
2018-11-10T11:38:38.998Z,21.47
2018-11-10T11:41:07.307Z,19.30
2018-11-10T11:43:36.571Z,20.53
2018-11-10T11:46:04.822Z,22.80
2018-11-10T11:48:33.844Z,21.67
2018-11-10T11:51:02.127Z,19.47
2018-11-10T11:53:30.402Z,20.43
2018-11-10T11:55:58.652Z,20.73
2018-11-10T11:58:27.014Z,22.67
2018-11-10T12:00:55.298Z,22.60
2018-11-10T12:03:24.315Z,23.83
2018-11-10T12:05:52.574Z,21.37
2018-11-10T12:08:20.833Z,24.40
2018-11-10T12:10:49.856Z,19.77
2018-11-10T12:13:18.435Z,21.70
2018-11-10T12:15:46.693Z,23.43
2018-11-10T12:18:15.700Z,21.90
2018-11-10T12:20:44.023Z,24.60
2018-11-10T12:23:12.447Z,23.70
2018-11-10T12:25:40.707Z,26.17
2018-11-10T12:28:09.726Z,21.57
2018-11-10T12:30:38.315Z,21.80
2018-11-10T12:33:06.577Z,20.70
2018-11-10T12:35:34.856Z,19.93
2018-11-10T12:38:03.110Z,22.63
2018-11-10T12:40:32.159Z,22.27
2018-11-10T12:43:00.455Z,23.17
2018-11-10T12:45:28.726Z,22.00
2018-11-10T12:47:56.987Z,21.10
2018-11-10T12:50:25.238Z,24.70
2018-11-10T12:52:53.526Z,21.10
2018-11-10T12:55:22.581Z,22.47
2018-11-10T12:57:50.846Z,22.70
2018-11-10T13:00:19.884Z,27.47
2018-11-10T13:02:48.152Z,33.07
2018-11-10T13:05:16.429Z,58.37
2018-11-10T13:07:44.754Z,40.53
2018-11-10T13:10:12.987Z,26.53
2018-11-10T13:12:41.242Z,36.23
2018-11-10T13:15:09.515Z,36.93
2018-11-10T13:17:37.830Z,39.17
2018-11-10T13:20:06.034Z,27.03
2018-11-10T13:22:35.070Z,22.70
2018-11-10T13:25:03.319Z,26.23
2018-11-10T13:27:31.791Z,22.87
2018-11-10T13:30:00.807Z,21.80
2018-11-10T13:32:29.063Z,22.93
2018-11-10T13:34:57.566Z,22.70
2018-11-10T13:37:25.846Z,21.07
2018-11-10T13:39:54.126Z,24.30
2018-11-10T13:42:23.137Z,41.13
2018-11-10T13:44:51.356Z,34.23
2018-11-10T13:47:20.389Z,28.80
2018-11-10T13:49:48.647Z,20.83
2018-11-10T13:52:17.270Z,21.37
2018-11-10T13:54:45.946Z,20.13
2018-11-10T13:57:14.477Z,25.03
2018-11-10T13:59:42.789Z,22.90
2018-11-10T14:02:11.044Z,23.87
2018-11-10T14:04:39.303Z,25.57
2018-11-10T14:07:08.586Z,28.53
2018-11-10T14:09:37.629Z,24.10
2018-11-10T14:12:05.858Z,24.77
2018-11-10T14:14:34.904Z,23.97
2018-11-10T14:17:03.163Z,24.70
2018-11-10T14:19:31.432Z,24.07
2018-11-10T14:21:59.720Z,21.57
2018-11-10T14:24:28.001Z,20.13
2018-11-10T14:26:56.254Z,21.70
2018-11-10T14:29:24.510Z,31.07
2018-11-10T14:31:52.780Z,21.80
2018-11-10T14:34:21.802Z,22.93
2018-11-10T14:36:50.083Z,25.00
2018-11-10T14:39:18.351Z,24.77
2018-11-10T14:41:46.620Z,23.17
2018-11-10T14:44:14.968Z,23.70
2018-11-10T14:46:43.146Z,22.20
2018-11-10T14:49:12.212Z,21.27
2018-11-10T14:51:40.476Z,25.10
2018-11-10T14:54:08.814Z,23.53
2018-11-10T14:56:37.099Z,24.40
2018-11-10T14:59:05.353Z,22.13
2018-11-10T15:01:33.961Z,27.73
2018-11-10T15:04:02.244Z,34.07
2018-11-10T15:06:30.491Z,25.53
2018-11-10T15:08:58.772Z,25.80
2018-11-10T15:11:27.040Z,30.37
2018-11-10T15:13:55.304Z,32.07
2018-11-10T15:16:24.330Z,29.67
2018-11-10T15:18:52.590Z,32.83
2018-11-10T15:21:20.859Z,28.27
2018-11-10T15:23:49.406Z,41.77
2018-11-10T15:26:20.495Z,38.63
2018-11-10T15:28:49.504Z,33.73
2018-11-10T15:31:17.758Z,28.37
2018-11-10T15:33:46.019Z,26.37
2018-11-10T15:36:14.547Z,27.30
2018-11-10T15:38:42.801Z,43.27
2018-11-10T15:41:11.069Z,33.77
2018-11-10T15:43:39.342Z,30.70
2018-11-10T15:46:07.609Z,31.97
2018-11-10T15:48:35.886Z,46.33
2018-11-10T15:51:04.146Z,41.17
2018-11-10T15:53:32.431Z,38.03
2018-11-10T15:56:01.042Z,35.73
2018-11-10T15:58:29.316Z,35.50
2018-11-10T16:00:57.562Z,36.53
2018-11-10T16:03:25.847Z,35.83
2018-11-10T16:05:54.129Z,31.70
2018-11-10T16:08:22.371Z,24.90
2018-11-10T16:10:51.411Z,39.97
2018-11-10T16:13:19.657Z,22.93
2018-11-10T16:15:47.915Z,24.83
2018-11-10T16:18:16.954Z,23.87
2018-11-10T16:20:45.276Z,22.13
2018-11-10T16:23:13.466Z,20.53
2018-11-10T16:25:41.788Z,19.50
2018-11-10T16:28:10.061Z,17.60
2018-11-10T16:30:38.334Z,17.90
2018-11-10T16:33:06.614Z,18.17
2018-11-10T16:35:34.891Z,20.97
2018-11-10T16:38:03.812Z,19.63
2018-11-10T16:40:32.342Z,20.43
2018-11-10T16:43:00.610Z,21.30
2018-11-10T16:45:28.867Z,20.63
2018-11-10T16:47:57.210Z,19.13
2018-11-10T16:50:25.499Z,18.63
2018-11-10T16:52:54.046Z,19.27
2018-11-10T16:55:22.304Z,16.63
2018-11-10T16:57:50.591Z,18.10
2018-11-10T17:00:18.856Z,18.97
2018-11-10T17:02:47.112Z,20.20
2018-11-10T17:05:15.410Z,17.23
2018-11-10T17:07:43.656Z,19.53
2018-11-10T17:10:11.915Z,19.00
2018-11-10T17:12:40.974Z,19.50
2018-11-10T17:15:09.234Z,19.37
2018-11-10T17:17:37.525Z,18.83
2018-11-10T17:20:05.783Z,15.87
2018-11-10T17:22:34.147Z,17.33
2018-11-10T17:25:02.325Z,16.27
2018-11-10T17:27:30.831Z,16.30
2018-11-10T17:29:59.163Z,16.23
2018-11-10T17:32:28.386Z,14.33
2018-11-10T17:34:56.648Z,14.97
2018-11-10T17:37:24.914Z,13.00
2018-11-10T17:39:53.334Z,13.23
2018-11-10T17:42:21.465Z,14.30
2018-11-10T17:44:49.733Z,11.27
2018-11-10T17:47:18.749Z,14.57
2018-11-10T17:49:47.011Z,12.70
2018-11-10T17:52:16.557Z,16.90
2018-11-10T17:54:44.767Z,12.63
2018-11-10T17:57:12.970Z,10.80
2018-11-10T17:59:41.235Z,11.30
2018-11-10T18:02:09.553Z,10.53
2018-11-10T18:04:37.770Z,13.90
2018-11-10T18:07:06.060Z,11.83
2018-11-10T18:09:34.314Z,14.90
2018-11-10T18:12:03.335Z,11.90
2018-11-10T18:14:31.605Z,10.63
2018-11-10T18:16:59.857Z,9.97
2018-11-10T18:19:28.889Z,10.50
2018-11-10T18:21:57.182Z,8.67
2018-11-10T18:24:25.431Z,7.17
2018-11-10T18:26:54.006Z,7.30
2018-11-10T18:29:22.998Z,7.90
2018-11-10T18:31:51.263Z,6.60
2018-11-10T18:34:19.524Z,8.33
2018-11-10T18:36:48.554Z,11.87
2018-11-10T18:39:16.834Z,6.83
2018-11-10T18:41:45.067Z,7.37
2018-11-10T18:44:14.202Z,8.37
2018-11-10T18:46:42.466Z,8.23
2018-11-10T18:49:10.698Z,10.67
2018-11-10T18:51:39.756Z,7.40
2018-11-10T18:54:08.003Z,5.77
2018-11-10T18:56:36.236Z,8.10
2018-11-10T18:59:04.498Z,7.77
2018-11-10T19:01:33.543Z,9.63
2018-11-10T19:04:01.803Z,6.57
2018-11-10T19:06:30.979Z,6.80
2018-11-10T19:08:59.118Z,8.90
2018-11-10T19:11:27.387Z,7.67
2018-11-10T19:13:55.646Z,9.47
2018-11-10T19:16:23.911Z,7.40
2018-11-10T19:18:52.168Z,9.23
2018-11-10T19:21:21.246Z,11.97
2018-11-10T19:23:50.311Z,11.97
2018-11-10T19:26:18.617Z,11.90
2018-11-10T19:28:46.862Z,14.70
2018-11-10T19:31:15.118Z,8.80
2018-11-10T19:33:43.701Z,7.50
2018-11-10T19:36:11.984Z,8.57
2018-11-10T19:38:40.240Z,7.93
2018-11-10T19:41:08.519Z,7.97
2018-11-10T19:43:36.798Z,9.67
2018-11-10T19:46:05.051Z,10.63
2018-11-10T19:48:33.313Z,10.93
2018-11-10T19:51:01.930Z,10.77
2018-11-10T19:53:29.858Z,11.30
2018-11-10T19:55:58.912Z,10.67
2018-11-10T19:58:27.155Z,10.37
2018-11-10T20:00:55.553Z,10.43
2018-11-10T20:03:23.778Z,10.73
2018-11-10T20:05:52.794Z,16.30
2018-11-10T20:08:21.091Z,9.57
2018-11-10T20:10:49.368Z,10.87
2018-11-10T20:13:17.651Z,11.77
2018-11-10T20:15:45.908Z,7.97
2018-11-10T20:18:14.163Z,14.93
2018-11-10T20:20:42.415Z,9.57
2018-11-10T20:23:10.700Z,8.77
2018-11-10T20:25:39.718Z,10.47
2018-11-10T20:28:07.991Z,8.43
2018-11-10T20:30:36.239Z,9.77
2018-11-10T20:33:05.253Z,11.13
2018-11-10T20:35:33.646Z,12.00
2018-11-10T20:38:01.939Z,10.07
2018-11-10T20:40:30.200Z,9.50
2018-11-10T20:42:58.456Z,7.80
2018-11-10T20:45:26.727Z,9.30
2018-11-10T20:47:54.979Z,7.23
2018-11-10T20:50:24.028Z,7.67
2018-11-10T20:52:52.289Z,7.50
2018-11-10T20:55:20.534Z,11.63
2018-11-10T20:57:50.192Z,9.40
2018-11-10T21:00:18.663Z,8.10
2018-11-10T21:02:47.643Z,9.03
2018-11-10T21:05:15.926Z,8.23
2018-11-10T21:07:44.176Z,6.10
2018-11-10T21:10:12.440Z,7.40
2018-11-10T21:12:40.766Z,7.73
2018-11-10T21:15:08.993Z,7.60
2018-11-10T21:17:37.264Z,6.97
2018-11-10T21:20:06.358Z,7.37
2018-11-10T21:22:34.566Z,8.57
2018-11-10T21:25:02.838Z,6.13
2018-11-10T21:27:31.095Z,5.10
2018-11-10T21:29:59.424Z,6.97
2018-11-10T21:32:27.617Z,7.37
2018-11-10T21:34:55.873Z,7.50
2018-11-10T21:37:24.147Z,7.23
2018-11-10T21:39:52.434Z,8.37
2018-11-10T21:42:20.681Z,7.63
2018-11-10T21:44:48.947Z,6.63
2018-11-10T21:47:17.202Z,7.70
2018-11-10T21:49:45.569Z,9.37
2018-11-10T21:52:13.713Z,6.87
2018-11-10T21:54:42.751Z,5.93
2018-11-10T21:57:10.997Z,8.93
2018-11-10T21:59:39.280Z,8.37
2018-11-10T22:02:07.521Z,6.43
2018-11-10T22:04:35.798Z,8.30
2018-11-10T22:07:04.046Z,6.10
2018-11-10T22:09:32.488Z,7.87
2018-11-10T22:12:00.557Z,6.87
2018-11-10T22:14:28.826Z,7.00
2018-11-10T22:16:57.856Z,10.13
2018-11-10T22:19:26.118Z,8.07
2018-11-10T22:21:54.383Z,11.47
2018-11-10T22:24:22.633Z,7.63
2018-11-10T22:26:51.662Z,7.23
2018-11-10T22:29:19.973Z,7.57
2018-11-10T22:31:48.230Z,8.33
2018-11-10T22:34:16.506Z,6.97
2018-11-10T22:36:44.755Z,10.07
2018-11-10T22:39:13.029Z,7.00
2018-11-10T22:41:41.278Z,8.07
2018-11-10T22:44:10.287Z,6.77
2018-11-10T22:46:38.556Z,7.40
2018-11-10T22:49:06.799Z,8.07
2018-11-10T22:51:35.106Z,8.87
2018-11-10T22:54:04.118Z,7.13
2018-11-10T22:56:32.400Z,6.97
2018-11-10T22:59:00.641Z,7.13
2018-11-10T23:01:29.671Z,5.83
2018-11-10T23:03:57.923Z,7.00
2018-11-10T23:06:26.179Z,8.70
2018-11-10T23:08:55.212Z,5.03
2018-11-10T23:11:23.454Z,5.93
2018-11-10T23:13:51.970Z,7.13
2018-11-10T23:16:20.196Z,5.83
2018-11-10T23:18:49.251Z,4.73
2018-11-10T23:21:17.512Z,5.93
2018-11-10T23:23:45.754Z,4.50
2018-11-10T23:26:14.768Z,8.40
2018-11-10T23:28:43.029Z,4.47
2018-11-10T23:31:11.309Z,4.83
2018-11-10T23:33:39.549Z,4.93
2018-11-10T23:36:07.803Z,4.87
2018-11-10T23:38:36.059Z,4.27
2018-11-10T23:41:04.341Z,4.97
2018-11-10T23:43:32.575Z,4.37
2018-11-10T23:46:00.830Z,4.07
2018-11-10T23:48:29.857Z,4.33
2018-11-10T23:50:58.113Z,5.37
2018-11-10T23:53:26.372Z,5.17
2018-11-10T23:55:54.645Z,4.30
2018-11-10T23:58:23.655Z,4.30
